Time;durP1;ratioP1;P1;durP2;ratioP2;P2;SDS_P1;SDS_P2;PMS_P1;PMS_P2;Temp;Humidity;BMP_temperature;BMP_pressure;BME280_temperature;BME280_humidity;BME280_pressure;Samples;Min_cycle;Max_cycle;Signal;HPM_P1;HPM_P2
2023/06/20 00:00:10;;;;;;;13.45;8.73;;;15.80;99.90;;;;;;5014294;28;20645;-90
2023/06/20 00:02:36;;;;;;;13.65;8.88;;;15.80;99.90;;;;;;5013911;28;20249;-90
2023/06/20 00:05:05;;;;;;;19.73;9.60;;;15.80;99.90;;;;;;5014141;28;20181;-90
2023/06/20 00:07:32;;;;;;;13.00;8.77;;;15.70;99.90;;;;;;5013759;28;20181;-89
2023/06/20 00:09:58;;;;;;;14.20;8.95;;;15.70;99.90;;;;;;5014081;28;20665;-91
2023/06/20 00:12:23;;;;;;;15.82;9.45;;;15.70;99.90;;;;;;5013817;28;20296;-91
2023/06/20 00:14:49;;;;;;;18.27;8.30;;;15.70;99.90;;;;;;4996337;28;20189;-91
2023/06/20 00:17:14;;;;;;;13.40;8.65;;;15.70;99.90;;;;;;5013965;28;20177;-91
2023/06/20 00:19:40;;;;;;;12.85;8.68;;;15.60;99.90;;;;;;5013859;28;20231;-90
2023/06/20 00:22:06;;;;;;;14.35;8.85;;;15.60;99.90;;;;;;5013687;28;20213;-91
2023/06/20 00:24:32;;;;;;;15.93;8.55;;;15.60;99.90;;;;;;5013471;28;20633;-90
2023/06/20 00:27:02;;;;;;;16.17;9.05;;;15.50;99.90;;;;;;4995720;28;20237;-90
2023/06/20 00:29:28;;;;;;;13.88;8.65;;;15.50;99.90;;;;;;5013567;28;20169;-89
2023/06/20 00:31:54;;;;;;;16.00;8.65;;;15.50;99.90;;;;;;5013681;28;20279;-91
2023/06/20 00:34:20;;;;;;;16.05;8.10;;;15.50;99.90;;;;;;5013759;28;20209;-91
2023/06/20 00:36:46;;;;;;;14.80;9.25;;;15.50;99.90;;;;;;4996009;28;20188;-90
2023/06/20 00:39:11;;;;;;;13.63;8.43;;;15.40;99.90;;;;;;4996084;28;20633;-91
2023/06/20 00:41:38;;;;;;;17.83;8.82;;;15.40;99.90;;;;;;5013267;28;20218;-91
2023/06/20 00:44:04;;;;;;;15.52;9.80;;;15.40;99.90;;;;;;5013407;28;20212;-91
2023/06/20 00:46:40;;;;;;;17.02;9.30;;;15.40;99.90;;;;;;4995729;28;20208;-90
2023/06/20 00:49:08;;;;;;;15.65;9.27;;;15.40;99.90;;;;;;5017655;28;20191;-91
2023/06/20 00:51:37;;;;;;;13.68;8.32;;;15.40;99.90;;;;;;5017291;28;20181;-91
2023/06/20 00:54:03;;;;;;;24.05;9.25;;;15.40;99.90;;;;;;5019048;28;20641;-92
2023/06/20 00:56:29;;;;;;;13.80;8.55;;;15.30;99.90;;;;;;5017322;28;20181;-93
2023/06/20 00:58:55;;;;;;;16.08;9.27;;;15.30;99.90;;;;;;5017410;28;20227;-91
2023/06/20 01:01:21;;;;;;;13.65;8.48;;;15.20;99.90;;;;;;5017038;28;20209;-91
2023/06/20 01:03:49;;;;;;;16.50;8.25;;;15.20;99.90;;;;;;5016773;28;20174;-91
2023/06/20 01:06:35;;;;;;;15.82;8.52;;;15.20;99.90;;;;;;5017064;28;20178;-90
2023/06/20 01:09:12;;;;;;;16.17;9.23;;;15.20;99.90;;;;;;5016915;28;20672;-90
2023/06/20 01:12:02;;;;;;;13.55;8.35;;;15.20;99.90;;;;;;5016418;28;20598;-90
2023/06/20 01:14:53;;;;;;;14.80;9.48;;;15.20;99.90;;;;;;5017086;28;20598;-90
2023/06/20 01:17:21;;;;;;;13.27;8.40;;;15.20;99.90;;;;;;5017968;28;20597;-91
2023/06/20 01:20:07;;;;;;;12.15;8.20;;;15.20;99.90;;;;;;5016681;28;20213;-91
2023/06/20 01:22:41;;;;;;;14.95;9.48;;;15.10;99.90;;;;;;5016590;28;20217;-88
2023/06/20 01:25:36;;;;;;;11.70;7.65;;;15.10;99.90;;;;;;5017441;28;20161;-91
2023/06/20 01:28:52;;;;;;;11.23;7.38;;;15.10;99.90;;;;;;4982018;28;20233;-91
2023/06/20 01:31:36;;;;;;;12.30;7.93;;;15.10;99.90;;;;;;5006541;28;20220;-90
2023/06/20 01:34:11;;;;;;;11.60;7.63;;;15.00;99.90;;;;;;5020542;28;20208;-90
2023/06/20 01:36:41;;;;;;;15.20;8.98;;;15.00;99.90;;;;;;5018056;28;20216;-90
2023/06/20 01:39:10;;;;;;;16.02;8.07;;;14.90;99.90;;;;;;5016598;28;20184;-91
2023/06/20 01:41:39;;;;;;;14.50;8.93;;;14.90;99.90;;;;;;5015955;28;20250;-90
2023/06/20 01:44:09;;;;;;;13.68;8.55;;;14.90;99.90;;;;;;5016589;28;20231;-91
2023/06/20 01:46:35;;;;;;;12.75;7.47;;;14.90;99.90;;;;;;5016212;28;20196;-91
2023/06/20 01:49:01;;;;;;;15.52;7.85;;;14.90;99.90;;;;;;5015994;28;20217;-90
2023/06/20 01:51:29;;;;;;;13.90;8.50;;;14.90;99.90;;;;;;5015864;28;20177;-92
2023/06/20 01:53:55;;;;;;;15.23;8.40;;;14.90;99.90;;;;;;5015964;28;20173;-92
2023/06/20 01:56:23;;;;;;;11.55;7.70;;;14.90;99.90;;;;;;4998637;28;20668;-91
2023/06/20 01:58:51;;;;;;;11.98;7.75;;;14.80;99.90;;;;;;5016062;28;20184;-91
2023/06/20 02:01:18;;;;;;;12.25;7.25;;;14.80;99.90;;;;;;4997952;28;20209;-91
2023/06/20 02:03:45;;;;;;;17.73;8.05;;;14.80;99.90;;;;;;5015861;28;20185;-91
2023/06/20 02:06:13;;;;;;;14.10;8.05;;;14.70;99.90;;;;;;5015947;28;20288;-91
2023/06/20 02:08:40;;;;;;;12.27;8.10;;;14.70;99.90;;;;;;5015645;28;20213;-88
2023/06/20 02:11:08;;;;;;;13.82;8.65;;;14.70;99.90;;;;;;5015875;28;20181;-91
2023/06/20 02:13:35;;;;;;;11.57;8.15;;;14.80;99.90;;;;;;4998722;28;20186;-91
2023/06/20 02:16:04;;;;;;;12.80;8.15;;;14.70;99.90;;;;;;5015665;28;20169;-91
2023/06/20 02:18:31;;;;;;;12.77;7.85;;;14.80;99.90;;;;;;5015629;28;20264;-92
2023/06/20 02:21:01;;;;;;;16.40;8.57;;;14.70;99.90;;;;;;4997715;28;20217;-91
2023/06/20 02:23:28;;;;;;;11.88;7.05;;;14.70;99.90;;;;;;5016207;28;20177;-92
2023/06/20 02:26:07;;;;;;;15.18;8.35;;;14.70;99.90;;;;;;4997939;28;20209;-91
2023/06/20 02:28:37;;;;;;;10.75;7.05;;;14.70;99.90;;;;;;5015880;28;20221;-91
2023/06/20 02:31:04;;;;;;;16.98;7.53;;;14.70;99.90;;;;;;4997947;28;20528;-91
2023/06/20 02:33:32;;;;;;;14.07;7.88;;;14.70;99.90;;;;;;5015527;28;20181;-92
2023/06/20 02:36:01;;;;;;;14.13;7.68;;;14.70;99.90;;;;;;5015301;28;20298;-92
2023/06/20 02:38:27;;;;;;;14.50;8.07;;;14.60;99.90;;;;;;5015112;28;20645;-92
2023/06/20 02:40:53;;;;;;;13.38;8.18;;;14.60;99.90;;;;;;5015119;28;20212;-92
2023/06/20 02:43:18;;;;;;;12.75;8.00;;;14.60;99.90;;;;;;5015425;28;20181;-93
2023/06/20 02:45:50;;;;;;;11.30;7.10;;;14.60;99.90;;;;;;4997730;28;20173;-92
2023/06/20 02:48:22;;;;;;;15.23;7.30;;;14.60;99.90;;;;;;5015373;28;20173;-92
2023/06/20 02:51:02;;;;;;;12.02;7.75;;;14.60;99.90;;;;;;4997490;28;20194;-91
2023/06/20 02:53:42;;;;;;;18.25;7.57;;;14.60;99.90;;;;;;4997926;28;20259;-92
2023/06/20 02:56:12;;;;;;;12.25;8.13;;;14.50;99.90;;;;;;5015223;28;20175;-92
2023/06/20 02:58:43;;;;;;;11.90;7.25;;;14.50;99.90;;;;;;5015090;28;20181;-92
2023/06/20 03:01:10;;;;;;;11.57;7.30;;;14.50;99.90;;;;;;5017067;28;20227;-91
2023/06/20 03:03:42;;;;;;;11.60;7.45;;;14.50;99.90;;;;;;5015966;28;20177;-92
2023/06/20 03:06:11;;;;;;;12.52;8.00;;;14.50;99.90;;;;;;5015327;28;20223;-90
2023/06/20 03:08:41;;;;;;;12.23;8.85;;;14.50;99.90;;;;;;4997841;28;20208;-91
2023/06/20 03:11:08;;;;;;;12.60;7.90;;;14.40;99.90;;;;;;5015633;28;20165;-93
2023/06/20 03:13:33;;;;;;;12.73;8.73;;;14.50;99.90;;;;;;5014933;28;20200;-91
2023/06/20 03:15:59;;;;;;;10.90;7.80;;;14.70;99.90;;;;;;5014652;28;20629;-89
2023/06/20 03:18:25;;;;;;;17.92;9.70;;;14.70;99.90;;;;;;4980977;28;20650;-90
2023/06/20 03:20:52;;;;;;;16.67;9.13;;;14.70;99.90;;;;;;4996997;28;20293;-90
2023/06/20 03:23:17;;;;;;;15.98;9.52;;;14.70;99.90;;;;;;4997446;28;20224;-90
2023/06/20 03:25:45;;;;;;;14.30;9.55;;;14.70;99.90;;;;;;5015185;28;20174;-91
2023/06/20 03:28:10;;;;;;;19.05;10.30;;;14.70;99.90;;;;;;5014980;28;20316;-92
2023/06/20 03:30:36;;;;;;;16.63;10.05;;;14.60;99.90;;;;;;5013671;28;20280;-92
2023/06/20 03:33:02;;;;;;;20.80;9.98;;;14.60;99.90;;;;;;5008724;28;20193;-86
2023/06/20 03:35:27;;;;;;;15.77;9.65;;;14.70;99.90;;;;;;5010574;28;20347;-90
2023/06/20 03:37:53;;;;;;;17.70;9.35;;;14.70;99.90;;;;;;5000431;28;20643;-90
2023/06/20 03:40:19;;;;;;;15.88;9.70;;;14.70;99.90;;;;;;4992957;28;20240;-89
2023/06/20 03:42:44;;;;;;;19.13;10.80;;;14.80;99.90;;;;;;4992882;28;20256;-89
2023/06/20 03:45:10;;;;;;;19.73;9.70;;;14.90;99.90;;;;;;4981186;28;20553;-90
2023/06/20 03:47:36;;;;;;;16.48;9.52;;;14.90;99.90;;;;;;4983459;28;20194;-90
2023/06/20 03:50:02;;;;;;;17.80;10.43;;;15.00;99.90;;;;;;4992705;28;20193;-87
2023/06/20 03:52:27;;;;;;;20.38;10.93;;;15.00;99.90;;;;;;5001228;28;20713;-88
2023/06/20 03:54:53;;;;;;;16.63;9.32;;;15.10;99.90;;;;;;4976630;28;20272;-88
2023/06/20 03:57:18;;;;;;;16.95;9.30;;;15.20;99.90;;;;;;4994517;28;20328;-91
2023/06/20 03:59:44;;;;;;;14.77;9.25;;;15.20;99.90;;;;;;4991897;28;20279;-89
2023/06/20 04:02:10;;;;;;;16.80;10.95;;;15.30;99.90;;;;;;4993402;28;20508;-89
2023/06/20 04:04:37;;;;;;;19.85;10.82;;;15.30;99.90;;;;;;5011872;28;20188;-89
2023/06/20 04:07:02;;;;;;;19.67;9.75;;;15.40;99.90;;;;;;5000646;28;20189;-89
2023/06/20 04:09:28;;;;;;;21.17;9.73;;;15.40;99.90;;;;;;4983999;28;20666;-88
2023/06/20 04:11:54;;;;;;;15.60;8.77;;;15.50;99.90;;;;;;5012040;28;20177;-86
2023/06/20 04:14:20;;;;;;;15.35;9.45;;;15.60;99.90;;;;;;5020506;28;20200;-88
2023/06/20 04:16:49;;;;;;;15.95;9.68;;;15.60;99.90;;;;;;5020727;28;20169;-86
2023/06/20 04:19:15;;;;;;;15.60;9.48;;;15.70;99.90;;;;;;5001146;28;20177;-87
2023/06/20 04:21:41;;;;;;;17.52;8.45;;;15.80;99.90;;;;;;4998235;28;20217;-89
2023/06/20 04:24:06;;;;;;;18.20;9.63;;;15.90;99.90;;;;;;5007458;28;20711;-90
2023/06/20 04:26:32;;;;;;;15.95;8.95;;;16.00;99.90;;;;;;4997872;28;20193;-90
2023/06/20 04:28:58;;;;;;;13.75;9.25;;;16.10;99.90;;;;;;5005280;28;20293;-89
2023/06/20 04:31:24;;;;;;;13.25;8.63;;;16.20;99.90;;;;;;4998335;28;20563;-89
2023/06/20 04:33:50;;;;;;;14.57;9.60;;;16.30;99.90;;;;;;5012387;28;20185;-88
2023/06/20 04:36:15;;;;;;;15.25;9.27;;;16.50;99.90;;;;;;4988392;28;20195;-89
2023/06/20 04:38:42;;;;;;;13.15;9.05;;;16.60;99.90;;;;;;5007971;28;20573;-90
2023/06/20 04:41:08;;;;;;;17.15;10.52;;;16.70;99.90;;;;;;5005028;28;20224;-89
2023/06/20 04:43:35;;;;;;;14.75;9.50;;;16.80;99.90;;;;;;5005934;28;20247;-90
2023/06/20 04:46:01;;;;;;;13.80;8.27;;;17.00;99.90;;;;;;5011575;28;20185;-90
2023/06/20 04:48:35;;;;;;;18.00;9.32;;;17.20;99.90;;;;;;5012680;28;20209;-91
2023/06/20 04:51:02;;;;;;;14.98;9.45;;;17.40;99.90;;;;;;4997909;28;20186;-91
2023/06/20 04:53:27;;;;;;;12.63;8.88;;;17.60;99.90;;;;;;4996503;28;20240;-90
2023/06/20 04:55:54;;;;;;;14.90;9.85;;;17.70;99.90;;;;;;4997297;28;20589;-90
2023/06/20 04:58:20;;;;;;;13.30;8.85;;;17.80;99.90;;;;;;4997389;28;20236;-90
2023/06/20 05:00:46;;;;;;;13.50;8.23;;;18.00;99.90;;;;;;4980067;28;20217;-91
2023/06/20 05:03:12;;;;;;;13.73;9.15;;;18.20;99.90;;;;;;5011544;28;20546;-91
2023/06/20 05:05:40;;;;;;;13.63;9.00;;;18.30;99.90;;;;;;5009314;28;20161;-88
2023/06/20 05:08:05;;;;;;;15.00;9.52;;;18.30;99.90;;;;;;5036131;28;20170;-87
2023/06/20 05:10:31;;;;;;;15.13;9.48;;;18.30;99.90;;;;;;5021762;28;20222;-90
2023/06/20 05:12:57;;;;;;;14.60;9.35;;;18.40;99.90;;;;;;5004809;28;20189;-89
2023/06/20 05:15:25;;;;;;;12.68;8.90;;;18.40;99.90;;;;;;5021034;28;20181;-89
2023/06/20 05:17:51;;;;;;;14.73;9.50;;;18.50;99.90;;;;;;5004454;28;20194;-89
2023/06/20 05:20:19;;;;;;;16.30;9.18;;;18.50;99.90;;;;;;4990717;28;20181;-90
2023/06/20 05:22:45;;;;;;;11.93;8.63;;;18.70;99.90;;;;;;5001744;28;20190;-91
2023/06/20 05:25:11;;;;;;;12.50;8.32;;;18.90;99.90;;;;;;5003622;28;20268;-89
2023/06/20 05:27:37;;;;;;;14.13;9.35;;;19.00;99.90;;;;;;5020930;28;20218;-89
2023/06/20 05:30:03;;;;;;;11.60;8.23;;;19.10;99.90;;;;;;5004161;28;20170;-87
2023/06/20 05:32:29;;;;;;;14.68;9.55;;;19.20;99.90;;;;;;5004510;28;20182;-89
2023/06/20 05:34:54;;;;;;;13.10;8.27;;;19.40;99.90;;;;;;5020659;28;20188;-89
2023/06/20 05:37:20;;;;;;;13.80;9.35;;;19.50;99.90;;;;;;4997535;28;20627;-92
2023/06/20 05:39:46;;;;;;;11.13;8.10;;;19.50;99.90;;;;;;4979263;28;20635;-91
2023/06/20 05:42:11;;;;;;;14.18;9.23;;;19.60;99.90;;;;;;4996109;28;20272;-90
2023/06/20 05:44:37;;;;;;;12.50;8.80;;;19.60;99.90;;;;;;4996444;28;20266;-89
2023/06/20 05:47:04;;;;;;;15.48;8.50;;;19.70;99.90;;;;;;4996563;28;20182;-88
2023/06/20 05:49:30;;;;;;;15.65;8.05;;;19.80;99.90;;;;;;4995563;28;20186;-90
2023/06/20 05:51:57;;;;;;;12.50;9.38;;;20.00;99.90;;;;;;4997038;28;20521;-90
2023/06/20 05:54:23;;;;;;;11.95;8.02;;;20.20;99.90;;;;;;4997585;28;20189;-90
2023/06/20 05:56:49;;;;;;;12.02;7.32;;;20.40;99.90;;;;;;4997624;28;20186;-90
2023/06/20 05:59:15;;;;;;;11.20;7.25;;;20.60;99.90;;;;;;4966303;28;20205;-89
2023/06/20 06:01:41;;;;;;;12.45;7.22;;;20.70;99.90;;;;;;4997926;28;20237;-90
2023/06/20 06:04:07;;;;;;;9.07;6.85;;;20.90;99.90;;;;;;4996622;28;20181;-89
2023/06/20 06:06:33;;;;;;;11.88;7.10;;;21.00;99.90;;;;;;4996323;28;20186;-91
2023/06/20 06:08:58;;;;;;;12.05;6.68;;;21.20;99.90;;;;;;4994042;28;20170;-89
2023/06/20 06:11:25;;;;;;;10.07;7.40;;;21.30;99.90;;;;;;5019534;28;20222;-88
2023/06/20 06:13:51;;;;;;;8.35;6.47;;;21.50;99.90;;;;;;5010031;28;20213;-91
2023/06/20 06:16:20;;;;;;;9.75;6.55;;;21.70;99.90;;;;;;4978415;28;20216;-90
2023/06/20 06:18:46;;;;;;;9.50;6.20;;;21.80;99.90;;;;;;4995688;28;20174;-90
2023/06/20 06:21:11;;;;;;;9.63;6.13;;;22.00;99.90;;;;;;4995338;28;20269;-90
2023/06/20 06:23:37;;;;;;;7.13;5.95;;;22.10;99.90;;;;;;4978294;28;20256;-90
2023/06/20 06:26:05;;;;;;;8.63;6.40;;;22.20;99.90;;;;;;4995702;28;20188;-89
2023/06/20 06:28:30;;;;;;;9.35;6.43;;;22.30;99.90;;;;;;4977814;28;20234;-91
2023/06/20 06:31:01;;;;;;;7.90;6.13;;;22.40;99.90;;;;;;4978528;28;20188;-92
2023/06/20 06:33:28;;;;;;;8.30;6.60;;;22.50;99.90;;;;;;4995463;28;20162;-91
2023/06/20 06:35:55;;;;;;;9.65;6.47;;;22.60;99.90;;;;;;4996063;28;20177;-90
2023/06/20 06:38:22;;;;;;;8.45;6.78;;;22.70;99.90;;;;;;4978536;28;20186;-92
2023/06/20 06:40:48;;;;;;;8.77;6.25;;;22.90;99.90;;;;;;4996254;28;20272;-92
2023/06/20 06:43:14;;;;;;;7.13;5.90;;;22.90;99.90;;;;;;4995877;28;20713;-91
2023/06/20 06:45:40;;;;;;;8.82;6.03;;;23.00;99.90;;;;;;4967457;28;20178;-91
2023/06/20 06:48:06;;;;;;;9.05;6.53;;;23.10;99.90;;;;;;5020148;28;20253;-91
2023/06/20 06:50:32;;;;;;;9.55;6.38;;;23.20;99.90;;;;;;5019945;28;20334;-92
2023/06/20 06:52:58;;;;;;;11.27;6.22;;;23.20;99.90;;;;;;5002593;28;20193;-91
2023/06/20 06:55:23;;;;;;;6.80;5.40;;;23.30;99.90;;;;;;5002924;28;20173;-88
2023/06/20 06:57:49;;;;;;;7.15;5.85;;;23.40;99.90;;;;;;4986504;28;20205;-91
2023/06/20 07:00:15;;;;;;;6.30;5.03;;;23.50;99.90;;;;;;5002630;28;20154;-88
2023/06/20 07:02:43;;;;;;;8.48;5.25;;;23.50;99.90;;;;;;5007407;28;20221;-92
2023/06/20 07:05:09;;;;;;;10.02;5.43;;;23.70;99.90;;;;;;4998824;28;20682;-87
2023/06/20 07:07:34;;;;;;;6.57;5.10;;;23.70;99.90;;;;;;5018760;28;20182;-91
2023/06/20 07:10:00;;;;;;;5.85;4.55;;;23.80;99.10;;;;;;5002440;28;20169;-92
2023/06/20 07:12:26;;;;;;;8.27;4.88;;;23.80;99.60;;;;;;4985826;28;20241;-91
2023/06/20 07:14:56;;;;;;;5.95;4.68;;;23.90;99.00;;;;;;5019233;28;20170;-91
2023/06/20 07:17:25;;;;;;;9.05;5.30;;;24.00;98.20;;;;;;4999944;28;20178;-92
2023/06/20 07:19:51;;;;;;;8.13;5.07;;;24.10;96.30;;;;;;4961382;28;20199;-92
2023/06/20 07:22:17;;;;;;;7.07;5.72;;;24.20;97.40;;;;;;4977390;28;20296;-90
2023/06/20 07:24:43;;;;;;;7.20;5.40;;;24.20;97.70;;;;;;4994840;28;20261;-92
2023/06/20 07:27:09;;;;;;;6.65;5.10;;;24.40;97.60;;;;;;4994689;28;20245;-92
2023/06/20 07:29:34;;;;;;;12.15;5.05;;;24.60;96.90;;;;;;4977276;28;20540;-91
2023/06/20 07:32:02;;;;;;;6.65;4.93;;;24.60;97.40;;;;;;4994263;28;20210;-90
2023/06/20 07:34:28;;;;;;;5.72;4.90;;;24.60;93.90;;;;;;4961046;28;20261;-91
2023/06/20 07:36:54;;;;;;;5.50;4.43;;;24.60;93.80;;;;;;4993133;28;20695;-92
2023/06/20 07:39:19;;;;;;;6.38;5.18;;;24.60;93.00;;;;;;4994643;28;20228;-89
2023/06/20 07:41:45;;;;;;;7.20;4.65;;;24.70;94.70;;;;;;4977490;28;20217;-90
2023/06/20 07:44:11;;;;;;;5.38;4.82;;;24.70;94.20;;;;;;4977778;28;20181;-91
2023/06/20 07:46:39;;;;;;;6.80;5.03;;;24.80;93.90;;;;;;4993957;28;20237;-90
2023/06/20 07:49:06;;;;;;;5.13;4.32;;;24.90;92.00;;;;;;4976659;28;20181;-90
2023/06/20 07:51:33;;;;;;;5.00;4.07;;;24.90;90.90;;;;;;4992835;28;20228;-89
2023/06/20 07:54:04;;;;;;;5.75;4.65;;;25.00;90.20;;;;;;4994515;28;20252;-90
2023/06/20 07:56:30;;;;;;;4.85;4.30;;;25.10;89.40;;;;;;4960622;28;20221;-89
2023/06/20 07:58:55;;;;;;;5.72;4.25;;;25.20;87.30;;;;;;4976813;28;20178;-90
2023/06/20 08:01:22;;;;;;;8.55;4.57;;;25.30;87.60;;;;;;4977041;28;20213;-91
2023/06/20 08:03:48;;;;;;;5.13;4.43;;;25.30;85.20;;;;;;4994604;28;20189;-91
2023/06/20 08:06:14;;;;;;;6.25;4.68;;;25.40;87.00;;;;;;4994359;28;20178;-90
2023/06/20 08:08:40;;;;;;;7.15;4.78;;;25.50;86.40;;;;;;4993955;28;20178;-90
2023/06/20 08:11:06;;;;;;;7.43;5.00;;;25.50;87.00;;;;;;4994037;28;20186;-91
2023/06/20 08:13:31;;;;;;;4.60;4.00;;;25.60;84.30;;;;;;4994045;28;20200;-91
2023/06/20 08:15:57;;;;;;;6.82;4.30;;;25.50;83.60;;;;;;4994134;28;20182;-92
2023/06/20 08:18:23;;;;;;;5.32;4.22;;;25.50;85.50;;;;;;4976600;28;20286;-91
2023/06/20 08:20:49;;;;;;;5.20;4.47;;;25.40;81.80;;;;;;4960500;28;20686;-92
2023/06/20 08:23:24;;;;;;;4.65;4.07;;;25.40;81.50;;;;;;4994318;28;20212;-92
2023/06/20 08:25:49;;;;;;;6.35;4.03;;;25.40;84.40;;;;;;4994552;28;20256;-92
2023/06/20 08:28:15;;;;;;;3.83;3.42;;;25.40;78.50;;;;;;4976946;28;20277;-92
2023/06/20 08:30:41;;;;;;;3.83;3.45;;;25.40;75.50;;;;;;4994980;28;20236;-92
2023/06/20 08:33:07;;;;;;;4.88;4.05;;;25.50;75.70;;;;;;4977217;28;20174;-92
2023/06/20 08:35:32;;;;;;;4.45;3.78;;;25.60;77.80;;;;;;4960516;28;20186;-92
2023/06/20 08:37:58;;;;;;;4.38;3.72;;;25.70;77.20;;;;;;4976606;28;20699;-92
2023/06/20 08:40:24;;;;;;;8.00;3.55;;;25.80;76.40;;;;;;4994104;28;20189;-92
2023/06/20 08:42:50;;;;;;;5.13;4.30;;;26.00;73.20;;;;;;4975992;28;20201;-91
2023/06/20 08:45:16;;;;;;;5.68;3.72;;;26.00;73.10;;;;;;4994002;28;20190;-91
2023/06/20 08:47:42;;;;;;;4.28;3.88;;;26.00;74.00;;;;;;4993591;28;20170;-92
2023/06/20 08:50:08;;;;;;;4.40;3.92;;;26.10;72.40;;;;;;4994047;28;20194;-91
2023/06/20 08:52:47;;;;;;;4.72;3.50;;;26.30;73.30;;;;;;4994568;28;20185;-92
2023/06/20 08:55:14;;;;;;;12.32;9.00;;;26.40;70.60;;;;;;4976911;28;20213;-92
2023/06/20 08:57:40;;;;;;;6.40;5.00;;;26.40;71.70;;;;;;4993575;28;20181;-93
2023/06/20 09:00:10;;;;;;;4.82;3.92;;;26.40;72.40;;;;;;4994029;28;20186;-92
2023/06/20 09:02:35;;;;;;;5.95;4.60;;;26.60;77.80;;;;;;4980912;28;20610;-92
2023/06/20 09:05:02;;;;;;;5.88;4.15;;;26.80;73.50;;;;;;4994365;28;20281;-92
2023/06/20 09:07:37;;;;;;;5.22;4.25;;;26.90;70.30;;;;;;4976664;28;20190;-92
2023/06/20 09:10:08;;;;;;;4.93;4.43;;;26.90;71.20;;;;;;4997509;28;20231;-92
2023/06/20 09:12:48;;;;;;;4.13;3.65;;;27.00;72.10;;;;;;5003912;28;20174;-89
2023/06/20 09:15:37;;;;;;;4.15;3.75;;;27.00;67.10;;;;;;4979904;28;20602;-93
2023/06/20 09:18:03;;;;;;;5.00;4.35;;;27.10;71.50;;;;;;4983888;28;20638;-92
2023/06/20 09:20:30;;;;;;;4.20;3.67;;;27.20;69.10;;;;;;4997806;28;20186;-92
2023/06/20 09:22:56;;;;;;;5.13;3.95;;;27.10;70.90;;;;;;4997324;28;20256;-92
2023/06/20 09:25:25;;;;;;;5.05;4.53;;;27.20;72.40;;;;;;4979793;28;20182;-92
2023/06/20 09:27:52;;;;;;;5.43;3.40;;;27.30;71.30;;;;;;4996763;28;20230;-92
2023/06/20 09:30:18;;;;;;;4.40;4.00;;;27.30;69.60;;;;;;4963596;28;20190;-92
2023/06/20 09:32:43;;;;;;;4.38;3.97;;;27.30;69.70;;;;;;4979422;28;20186;-92
2023/06/20 09:35:12;;;;;;;4.57;4.15;;;27.40;69.60;;;;;;4979574;28;20205;-92
2023/06/20 09:37:51;;;;;;;6.10;4.43;;;27.40;68.00;;;;;;4996362;28;20182;-91
2023/06/20 09:40:19;;;;;;;7.38;4.53;;;27.30;69.80;;;;;;4995928;28;20186;-92
2023/06/20 09:42:46;;;;;;;5.55;4.72;;;27.30;70.60;;;;;;5000174;28;20272;-91
2023/06/20 09:45:13;;;;;;;4.97;4.45;;;27.30;69.80;;;;;;5003123;28;20178;-92
2023/06/20 09:47:40;;;;;;;4.57;4.07;;;27.20;68.60;;;;;;4980208;28;20245;-91
2023/06/20 09:50:08;;;;;;;5.78;4.45;;;27.10;67.70;;;;;;4979941;28;20178;-92
2023/06/20 09:53:16;;;;;;;5.97;4.28;;;26.90;67.20;;;;;;4980483;28;20650;-92
2023/06/20 09:55:42;;;;;;;6.07;3.65;;;26.50;66.40;;;;;;4979605;28;20182;-93
2023/06/20 09:58:10;;;;;;;4.30;3.80;;;26.20;67.40;;;;;;4997191;28;20185;-94
2023/06/20 10:00:37;;;;;;;4.60;4.20;;;26.20;66.30;;;;;;4996676;28;20178;-93
2023/06/20 10:03:07;;;;;;;10.93;4.00;;;26.00;69.00;;;;;;4996163;28;20182;-86
2023/06/20 10:05:34;;;;;;;5.50;4.07;;;26.30;74.40;;;;;;4996892;28;20158;-94
2023/06/20 10:08:00;;;;;;;9.60;4.05;;;26.20;67.90;;;;;;4996363;28;20559;-91
2023/06/20 10:10:26;;;;;;;5.28;4.35;;;26.00;68.00;;;;;;5002723;28;20186;-92
2023/06/20 10:12:54;;;;;;;5.25;4.65;;;26.00;72.20;;;;;;4997313;28;20529;-91
2023/06/20 10:15:21;;;;;;;5.13;4.60;;;26.00;70.60;;;;;;4996461;28;20206;-91
2023/06/20 10:17:47;;;;;;;7.25;4.80;;;25.80;70.00;;;;;;4995650;28;20201;-90
2023/06/20 10:20:33;;;;;;;9.90;6.68;;;25.80;72.40;;;;;;4994716;28;20182;-91
2023/06/20 10:23:05;;;;;;;5.43;4.38;;;25.80;69.40;;;;;;4998173;28;20237;-91
2023/06/20 10:25:31;;;;;;;10.85;7.40;;;25.80;71.20;;;;;;4995730;28;20238;-92
2023/06/20 10:28:00;;;;;;;5.55;4.47;;;25.90;73.30;;;;;;4978010;28;20234;-91
2023/06/20 10:30:51;;;;;;;8.98;4.93;;;26.10;73.80;;;;;;4979977;28;20575;-92
2023/06/20 10:33:26;;;;;;;5.78;4.97;;;26.60;71.20;;;;;;5000082;28;20214;-92
2023/06/20 10:36:04;;;;;;;6.38;4.85;;;27.10;71.20;;;;;;5000210;28;20182;-91
2023/06/20 10:38:33;;;;;;;5.53;4.60;;;27.20;69.60;;;;;;4999805;28;20173;-91
2023/06/20 10:41:22;;;;;;;8.07;3.88;;;27.20;70.90;;;;;;4997397;28;20209;-91
2023/06/20 10:43:50;;;;;;;6.32;4.63;;;27.00;69.20;;;;;;4997318;28;20631;-92
2023/06/20 10:46:17;;;;;;;4.82;4.22;;;26.80;71.40;;;;;;4997347;28;20197;-91
2023/06/20 10:48:43;;;;;;;6.90;4.50;;;26.60;70.30;;;;;;4997106;28;20627;-92
2023/06/20 10:51:11;;;;;;;4.78;4.22;;;26.50;70.20;;;;;;4997479;28;20687;-92
2023/06/20 10:53:37;;;;;;;4.97;4.47;;;26.30;69.40;;;;;;5011126;28;20190;-87
2023/06/20 10:56:03;;;;;;;5.47;4.68;;;26.20;72.00;;;;;;5001604;28;20193;-88
2023/06/20 10:58:29;;;;;;;4.65;4.20;;;26.20;73.50;;;;;;5016981;28;20756;-88
2023/06/20 11:00:55;;;;;;;4.75;4.07;;;26.10;73.70;;;;;;5000182;28;20228;-87
2023/06/20 11:03:23;;;;;;;4.60;4.20;;;26.00;72.30;;;;;;4980120;28;20269;-90
2023/06/20 11:05:49;;;;;;;8.13;4.82;;;25.90;72.00;;;;;;4995328;28;20182;-90
2023/06/20 11:08:25;;;;;;;5.85;4.55;;;25.80;71.40;;;;;;4977771;28;20258;-92
2023/06/20 11:10:52;;;;;;;6.65;4.80;;;25.80;72.50;;;;;;4995012;28;20185;-89
2023/06/20 11:13:17;;;;;;;266.65;49.67;;;25.80;72.60;;;;;;4961312;28;20185;-91
2023/06/20 11:15:43;;;;;;;84.95;18.27;;;25.90;75.60;;;;;;4977507;28;20181;-91
2023/06/20 11:18:09;;;;;;;9.38;5.50;;;25.90;73.90;;;;;;4994845;28;20628;-91
2023/06/20 11:20:39;;;;;;;6.95;4.80;;;25.90;73.60;;;;;;4994824;28;20682;-91
2023/06/20 11:23:06;;;;;;;6.65;4.75;;;25.90;74.10;;;;;;4994903;28;20184;-92
2023/06/20 11:25:34;;;;;;;6.93;5.07;;;26.00;74.80;;;;;;4994702;28;20174;-91
2023/06/20 11:28:26;;;;;;;5.65;4.55;;;26.00;75.30;;;;;;4976884;28;20252;-91
2023/06/20 11:30:52;;;;;;;6.15;4.45;;;26.30;77.10;;;;;;4989952;28;20245;-92
2023/06/20 11:33:18;;;;;;;7.35;5.13;;;26.40;74.30;;;;;;4977133;28;20575;-91
2023/06/20 11:35:55;;;;;;;6.90;4.38;;;26.40;73.80;;;;;;4977433;28;20180;-90
2023/06/20 11:38:29;;;;;;;4.72;4.25;;;26.30;74.10;;;;;;4994842;28;20201;-91
2023/06/20 11:41:03;;;;;;;5.05;4.43;;;26.10;73.30;;;;;;4977168;28;20275;-88
2023/06/20 11:43:43;;;;;;;5.60;4.60;;;26.10;73.40;;;;;;4994637;28;20196;-91
2023/06/20 11:46:11;;;;;;;4.75;4.22;;;26.00;70.40;;;;;;4994203;28;20236;-91
2023/06/20 11:48:46;;;;;;;5.18;4.68;;;25.90;70.80;;;;;;4977391;28;20244;-91
2023/06/20 11:51:12;;;;;;;8.07;4.90;;;26.00;74.60;;;;;;4994199;28;20169;-91
2023/06/20 11:53:38;;;;;;;9.38;5.15;;;26.10;75.80;;;;;;4977342;28;20178;-91
2023/06/20 11:56:14;;;;;;;7.60;4.97;;;26.40;73.30;;;;;;4976877;28;20587;-92
2023/06/20 11:58:49;;;;;;;6.00;5.03;;;26.40;74.40;;;;;;4995132;28;20201;-91
2023/06/20 12:01:20;;;;;;;5.65;4.38;;;26.50;74.20;;;;;;4993862;28;20197;-93
2023/06/20 12:04:05;;;;;;;7.25;5.07;;;26.80;73.20;;;;;;4994644;28;20182;-92
2023/06/20 12:06:36;;;;;;;5.25;4.72;;;26.90;70.40;;;;;;4994452;28;20166;-92
2023/06/20 12:09:11;;;;;;;6.93;4.50;;;26.70;71.00;;;;;;4976588;28;20264;-91
2023/06/20 12:11:47;;;;;;;6.13;5.07;;;26.70;71.70;;;;;;4994428;28;20216;-94
2023/06/20 12:14:16;;;;;;;7.30;4.60;;;26.90;73.90;;;;;;4967526;28;20189;-93
2023/06/20 12:16:42;;;;;;;5.57;4.63;;;27.20;73.10;;;;;;4989413;28;20206;-92
2023/06/20 12:19:09;;;;;;;6.93;4.57;;;27.40;71.30;;;;;;5005486;28;20178;-93
2023/06/20 12:21:38;;;;;;;5.40;4.38;;;27.40;70.10;;;;;;4994197;28;20201;-92
2023/06/20 12:24:07;;;;;;;9.10;4.43;;;27.20;70.90;;;;;;4976512;28;20650;-91
2023/06/20 12:26:33;;;;;;;6.13;4.28;;;27.10;70.00;;;;;;4977209;28;20174;-90
2023/06/20 12:28:59;;;;;;;6.60;4.50;;;27.00;69.10;;;;;;4994273;28;20312;-90
2023/06/20 12:31:24;;;;;;;4.95;4.35;;;26.80;70.30;;;;;;4993585;28;20625;-91
2023/06/20 12:33:50;;;;;;;4.95;4.13;;;26.70;70.30;;;;;;4977616;28;20713;-91
2023/06/20 12:36:17;;;;;;;7.18;5.15;;;26.70;70.50;;;;;;4976333;28;20182;-91
2023/06/20 12:38:44;;;;;;;6.05;4.32;;;26.60;71.60;;;;;;4977182;28;20182;-94
2023/06/20 12:41:11;;;;;;;4.93;4.43;;;26.60;72.50;;;;;;5004441;28;20291;-91
2023/06/20 12:43:37;;;;;;;5.28;4.18;;;26.70;72.20;;;;;;5004742;28;20189;-90
2023/06/20 12:46:03;;;;;;;4.40;4.00;;;27.00;68.50;;;;;;5001501;28;20213;-89